x

Buoy B01 - Western Maine Shelf (44030) Wave Buoy

5:04 - Wed 22nd Feb 2017 All times are EST. -5 hours from GMT.

  • Sig Wave height 3.6ft
  • Peak Period 5s
  • Wind
    16mph, 18mph gusts
  • Sea Temp 40°f
  • Luft Temp 38°f
  • Sea Pressure 1016.1mb
  • Buoy B01 - Western Maine Shelf
  • Buoy B01 - Western Maine Shelf

More Historic Weather Station data

Upgrade to MSW Pro to gain access to the past 30 days of data for over 8000 Wavebouys and Weather Stations around the globe.

Join Pro

Comparision Forecast

View Surf forecast
   
Mi 02/22 5:04 3.5ft 5s 16 18 mph 1016.1mb 40f 38f
4:04 4ft 5s 16 20 mph 1016.1mb 40f 38f
3:04 3.5ft 5s 18 20 mph 1016.4mb 40f 39f
2:04 4ft 5s 20 25 mph 1016.9mb 41f 39f
1:04 4.5ft 5s 20 22 mph 1017.7mb 41f 39f
12:04 4.5ft 5s 20 25 mph 1018.2mb 41f 40f
Di 02/21 11:04 4ft 5s 18 20 mph 1019mb 41f 40f
10:04 4.5ft 5s 20 22 mph 1019.8mb 41f 40f
9:04 3.5ft 4s 20 25 mph 1020.8mb 41f 39f
8:04 3ft 3s 18 22 mph 1021mb 41f 39f
7:04 2.5ft 6s 16 18 mph 1022.3mb 41f 38f
6:04 2.5ft 5s 13 18 mph 1022.6mb 41f 38f
5:04 2.5ft 6s 13 18 mph 1023mb 41f 37f
4:04 2.5ft 6s 13 18 mph 1023.4mb 41f 37f
3:04 3ft 6s 11 13 mph 1024.4mb 41f 36f
2:04 2.5ft 5s 9 11 mph 1025.3mb 42f 35f
1:04 3.5ft 6s 4 7 mph 1026.2mb 41f 35f
12:04 3.5ft 6s 4 7 mph 1026.7mb 41f 34f
11:04 3ft 6s 4 7 mph 1027.6mb 40f 34f
10:04 3.5ft 6s 2 4 mph 1028.5mb 40f 36f
9:04 3.5ft 5s 7 9 mph 1028.3mb 40f 34f
8:04 3ft 5s 7 11 mph 1028.7mb 40f 35f
7:04 2.5ft 5s 11
mph
1028.4mb 40f 34f
6:04 2.5ft 5s 13 16 mph 1028mb 40f 34f
5:04 3ft 5s 13 18 mph 1027.9mb 40f 35f
4:04 2.5ft 5s 13 16 mph 1028mb 40f 35f
3:04 2.5ft 5s 16 20 mph 1027.7mb 40f 36f
2:04 2.5ft 5s 13 16 mph 1027.6mb 40f 35f
1:04 2.5ft 5s 13 16 mph 1028.3mb 40f 35f
12:04 2ft 5s 16 20 mph 1027.7mb 40f 36f
Mo 02/20 11:04 2.5ft 4s 16 18 mph 1027mb 40f 36f
10:04 2.5ft 4s 18 25 mph 1026.6mb 40f 36f
9:04 2.5ft 3s 20 25 mph 1026mb 40f 37f
8:04 1.6ft 2s 20 25 mph 1025.7mb 40f 38f
7:04 1.6ft 3s 13 18 mph 1025mb 40f 39f
6:04 2ft 4s 13 18 mph 1024.1mb 40f 40f
5:04 2.5ft 4s 20 22 mph 1022.9mb 40f 40f
4:04  -   -  16 20 mph 1022.2mb 40f 40f
3:04 3ft 8s 16 18 mph 1021.6mb 40f 40f
2:04 2.5ft 8s 16 18 mph 1020.6mb 40f 39f
1:04 3ft 8s 11 16 mph 1020.6mb 40f 38f
12:04 3ft 4s 13 16 mph 1020.8mb 40f 37f
11:04 3.5ft 4s 13 18 mph 1020.9mb 40f 36f
10:04 3.5ft 5s 16 20 mph 1020.7mb 40f 36f
9:04 3.5ft 5s 16 18 mph 1020.3mb 40f 36f
8:04 3.5ft 5s 18 20 mph 1019.1mb 40f 36f
7:04 2.5ft 4s 18 22 mph 1018mb 40f 37f
6:04 2.5ft 4s 16 20 mph 1016.6mb 40f 38f
5:04 2ft 3s 16 18 mph 1015.3mb 40f 39f
4:04 1.6ft 3s 20 22 mph 1014.3mb 40f 40f
3:04 2ft 8s 9
mph
1013.5mb 39f 40f
2:04 1.6ft 11s 9
mph
1013mb 39f 40f
1:04 1.6ft 8s 13 16 mph 1012.3mb 39f 42f
12:04 1ft 2s 11 13 mph 1011.4mb 39f 43f
So 02/19 11:04 1.3ft 2s 13
mph
1011.1mb 39f 44f
10:04 0.7ft  -  11 13 mph 1010.9mb 39f 44f
9:04 1ft 2s 7 9 mph 1010.3mb 39f 44f
8:04 1.3ft 6s 13 16 mph 1009.4mb 39f 46f
7:04 1ft 3s 9 11 mph 1008.7mb 39f 44f
6:04 1.3ft 3s 16 20 mph 1007.8mb 39f 47f
5:04 2.5ft 4s 18 20 mph 1006.4mb 40f 48f
4:04 2.5ft 3s 20 22 mph 1005.3mb 40f 50f
3:04 2ft 6s 9 11 mph 1004.2mb 40f 49f
2:04 2.5ft 8s 13 16 mph 1003.2mb 40f 45f
1:04 2.5ft 11s 16
mph
1002.9mb 39f 44f
12:04 2ft 6s 11
mph
1003.5mb 39f 43f
11:04 2ft 5s 11 13 mph 1003.8mb 39f 44f
10:04 2ft 6s 11 13 mph 1004mb 39f 43f
9:04 2ft 5s 11 13 mph 1003.8mb 39f 44f
8:04 2.5ft 5s 11
mph
1003.4mb 39f 42f
7:04 2.5ft 6s 13 16 mph 1002.6mb 39f 43f
6:04 2.5ft 6s 18 20 mph 1001.7mb 39f 44f
5:04 2.5ft 6s 13 16 mph 1001.2mb 39f 43f